Jamestown, ND (58401)

5:08 PM CST on February 10, 2016 (GMT -0600)
Leapaldt Addition | | Change Station
CLOSE
Current Station
Personal Weather Station
Location: Jamestown, ND
Elevation: 1486 ft
Nearby Weather Stations

Elev 1486 ft 46.93 °N, 98.69 °W | Updated 2 minutes ago

Light Snow
Light Snow
8.6 °F
Feels Like -3 °F
N
7.8
Wind Variable Wind from ENE

Today
High -- | Low -- °F
--% Chance of Precip.
Yesterday
High -- | Low -- °F
Precip. -- in
Pressure 30.27 in
Visibility 5.0 miles
Clouds Few 1200 ft
Overcast 1900 ft
Windchill -3 °F
Dew Point 6 °F
Humidity 89%
Rainfall 0.00 in
Snow Depth Not available.
7:47 AM 5:51 PM
Waxing Crescent, 7% visible
METAR KJMS 102256Z AUTO 07009KT 5SM -SN FEW012 OVC019 M13/M16 A3016 RMK AO2 SLP249 P0000 T11281156
Pressure 30.27 in
Visibility 5.0 miles
Clouds Few 1200 ft
Overcast 1900 ft
Windchill -3 °F
Dew Point 6 °F
Humidity 89%
Rainfall 0.00 in
Snow Depth Not available.
7:47 AM 5:51 PM
Waxing Crescent, 7% visible
METAR KJMS 102256Z AUTO 07009KT 5SM -SN FEW012 OVC019 M13/M16 A3016 RMK AO2 SLP249 P0000 T11281156

10-Day Weather Forecast

Almanac

Astronomy

Feb. 10, 2016 Rise Set
Actual Time
Civil Twilight
Nautical Twilight
Astronomical Twilight
Moon
Length of Visible Light
Length of Day
Tomorrow will be .
, % of the Moon is Illuminated

Today's Extremes

State Highs State Lows

Community

WunderPhotos

Upload Photos

1,891,933 photos uploaded!

WunderBlog® & News

Nearby

Air Quality

  Air Quality AQ Index Pollutant
Not available.

Snow Depth

Station Depth Elevation

Earthquake Activity

City Distance Mag. Time & Date
Minimum magnitude displayed is 2.5.

Coastal Water Temperatures

Place Temperature

Stations

Nearby Weather Stations

Station Location Temp. Windchill Dew Point Humidity Wind Precip. Elev Updated Type
                   

Watches & Warnings

There are currently no watches in effect.